sensor_id;sensor_type;location;lat;lon;timestamp;temperature;humidity
38938;DHT22;24727;51.974;20.868;2023-12-04T00:00:38;-2.10;1.00
38938;DHT22;24727;51.974;20.868;2023-12-04T00:03:03;-2.10;1.00
38938;DHT22;24727;51.974;20.868;2023-12-04T00:05:29;-2.10;1.00
38938;DHT22;24727;51.974;20.868;2023-12-04T00:07:55;-2.10;1.00
38938;DHT22;24727;51.974;20.868;2023-12-04T00:10:21;-2.10;1.00
38938;DHT22;24727;51.974;20.868;2023-12-04T00:12:48;-2.00;1.00
38938;DHT22;24727;51.974;20.868;2023-12-04T00:15:13;-2.10;1.00
38938;DHT22;24727;51.974;20.868;2023-12-04T00:17:39;-2.10;1.00
38938;DHT22;24727;51.974;20.868;2023-12-04T00:20:08;-2.00;1.00
38938;DHT22;24727;51.974;20.868;2023-12-04T00:22:35;-2.00;1.00
38938;DHT22;24727;51.974;20.868;2023-12-04T00:25:02;-2.10;1.00
38938;DHT22;24727;51.974;20.868;2023-12-04T00:27:29;-2.10;1.00
38938;DHT22;24727;51.974;20.868;2023-12-04T00:29:55;-2.00;1.00
38938;DHT22;24727;51.974;20.868;2023-12-04T00:32:21;-2.00;1.00
38938;DHT22;24727;51.974;20.868;2023-12-04T00:34:47;-2.00;1.00
38938;DHT22;24727;51.974;20.868;2023-12-04T00:37:12;-2.00;1.00
38938;DHT22;24727;51.974;20.868;2023-12-04T00:39:38;-2.00;1.00
38938;DHT22;24727;51.974;20.868;2023-12-04T00:42:04;-2.10;1.00
38938;DHT22;24727;51.974;20.868;2023-12-04T00:44:30;-2.10;1.00
38938;DHT22;24727;51.974;20.868;2023-12-04T00:46:56;-2.00;1.00
38938;DHT22;24727;51.974;20.868;2023-12-04T00:49:23;-2.00;1.00
38938;DHT22;24727;51.974;20.868;2023-12-04T00:51:49;-2.00;1.00
38938;DHT22;24727;51.974;20.868;2023-12-04T00:54:15;-2.10;1.00
38938;DHT22;24727;51.974;20.868;2023-12-04T00:56:41;-2.00;1.00
38938;DHT22;24727;51.974;20.868;2023-12-04T00:59:10;-2.00;1.00
38938;DHT22;24727;51.974;20.868;2023-12-04T01:01:37;-2.00;1.00
38938;DHT22;24727;51.974;20.868;2023-12-04T01:04:03;-2.00;1.00
38938;DHT22;24727;51.974;20.868;2023-12-04T01:06:29;-2.00;1.00
38938;DHT22;24727;51.974;20.868;2023-12-04T01:08:55;-2.00;1.00
38938;DHT22;24727;51.974;20.868;2023-12-04T01:11:21;-2.00;1.00
38938;DHT22;24727;51.974;20.868;2023-12-04T01:13:48;-2.00;1.00
38938;DHT22;24727;51.974;20.868;2023-12-04T01:16:14;-1.90;1.00
38938;DHT22;24727;51.974;20.868;2023-12-04T01:18:41;-2.00;1.00
38938;DHT22;24727;51.974;20.868;2023-12-04T01:21:07;-2.00;1.00
38938;DHT22;24727;51.974;20.868;2023-12-04T01:23:35;-1.90;1.00
38938;DHT22;24727;51.974;20.868;2023-12-04T01:26:02;-1.90;1.00
38938;DHT22;24727;51.974;20.868;2023-12-04T01:28:28;-1.90;1.00
38938;DHT22;24727;51.974;20.868;2023-12-04T01:30:53;-1.90;1.00
38938;DHT22;24727;51.974;20.868;2023-12-04T01:33:19;-2.00;1.00
38938;DHT22;24727;51.974;20.868;2023-12-04T01:35:45;-1.90;1.00
38938;DHT22;24727;51.974;20.868;2023-12-04T01:38:11;-2.00;1.00
38938;DHT22;24727;51.974;20.868;2023-12-04T01:40:37;-2.00;1.00
38938;DHT22;24727;51.974;20.868;2023-12-04T01:43:03;-2.00;1.00
38938;DHT22;24727;51.974;20.868;2023-12-04T01:45:29;-1.90;1.00
38938;DHT22;24727;51.974;20.868;2023-12-04T01:47:55;-2.00;1.00
38938;DHT22;24727;51.974;20.868;2023-12-04T01:50:21;-2.00;1.00
38938;DHT22;24727;51.974;20.868;2023-12-04T01:52:47;-2.00;1.00
38938;DHT22;24727;51.974;20.868;2023-12-04T01:55:15;-2.00;1.00
38938;DHT22;24727;51.974;20.868;2023-12-04T01:57:41;-2.00;1.00
38938;DHT22;24727;51.974;20.868;2023-12-04T02:00:07;-2.00;1.00
38938;DHT22;24727;51.974;20.868;2023-12-04T02:02:40;-2.00;1.00
38938;DHT22;24727;51.974;20.868;2023-12-04T02:05:08;-2.00;1.00
38938;DHT22;24727;51.974;20.868;2023-12-04T02:07:35;-2.10;1.00
38938;DHT22;24727;51.974;20.868;2023-12-04T02:10:04;-2.00;1.00
38938;DHT22;24727;51.974;20.868;2023-12-04T02:12:30;-2.10;1.00
38938;DHT22;24727;51.974;20.868;2023-12-04T02:14:57;-2.10;1.00
38938;DHT22;24727;51.974;20.868;2023-12-04T02:17:23;-2.00;1.00
38938;DHT22;24727;51.974;20.868;2023-12-04T02:19:50;-2.10;1.00
38938;DHT22;24727;51.974;20.868;2023-12-04T02:22:16;-2.10;1.00
38938;DHT22;24727;51.974;20.868;2023-12-04T02:24:46;-2.10;1.00
38938;DHT22;24727;51.974;20.868;2023-12-04T02:27:19;-2.10;1.00
38938;DHT22;24727;51.974;20.868;2023-12-04T02:29:56;-2.20;1.00
38938;DHT22;24727;51.974;20.868;2023-12-04T02:32:23;-2.20;1.00
38938;DHT22;24727;51.974;20.868;2023-12-04T02:34:50;-2.20;1.00
38938;DHT22;24727;51.974;20.868;2023-12-04T02:37:19;-2.20;1.00
38938;DHT22;24727;51.974;20.868;2023-12-04T02:39:45;-2.20;1.00
38938;DHT22;24727;51.974;20.868;2023-12-04T02:42:12;-2.30;1.00
38938;DHT22;24727;51.974;20.868;2023-12-04T02:44:39;-2.30;1.00
38938;DHT22;24727;51.974;20.868;2023-12-04T02:47:05;-2.20;1.00
38938;DHT22;24727;51.974;20.868;2023-12-04T02:49:31;-2.30;1.00
38938;DHT22;24727;51.974;20.868;2023-12-04T02:51:56;-2.30;1.00
38938;DHT22;24727;51.974;20.868;2023-12-04T02:54:23;-2.30;1.00
38938;DHT22;24727;51.974;20.868;2023-12-04T02:56:49;-2.30;1.00
38938;DHT22;24727;51.974;20.868;2023-12-04T02:59:15;-2.40;1.00
38938;DHT22;24727;51.974;20.868;2023-12-04T03:01:41;-2.40;1.00
38938;DHT22;24727;51.974;20.868;2023-12-04T03:04:07;-2.40;1.00
38938;DHT22;24727;51.974;20.868;2023-12-04T03:06:33;-2.40;1.00
38938;DHT22;24727;51.974;20.868;2023-12-04T03:08:59;-2.50;1.00
38938;DHT22;24727;51.974;20.868;2023-12-04T03:11:25;-2.50;1.00
38938;DHT22;24727;51.974;20.868;2023-12-04T03:13:53;-2.50;1.00
38938;DHT22;24727;51.974;20.868;2023-12-04T03:16:20;-2.50;1.00
38938;DHT22;24727;51.974;20.868;2023-12-04T03:18:46;-2.50;1.00
38938;DHT22;24727;51.974;20.868;2023-12-04T03:21:12;-2.50;1.00
38938;DHT22;24727;51.974;20.868;2023-12-04T03:23:38;-2.50;1.00
38938;DHT22;24727;51.974;20.868;2023-12-04T03:26:04;-2.40;1.00
38938;DHT22;24727;51.974;20.868;2023-12-04T03:28:29;-2.40;1.00
38938;DHT22;24727;51.974;20.868;2023-12-04T03:30:55;-2.40;1.00
38938;DHT22;24727;51.974;20.868;2023-12-04T03:33:21;-2.50;1.00
38938;DHT22;24727;51.974;20.868;2023-12-04T03:35:47;-2.50;1.00
38938;DHT22;24727;51.974;20.868;2023-12-04T03:38:13;-2.50;1.00
38938;DHT22;24727;51.974;20.868;2023-12-04T03:40:39;-2.50;1.00
38938;DHT22;24727;51.974;20.868;2023-12-04T03:43:04;-2.50;1.00
38938;DHT22;24727;51.974;20.868;2023-12-04T03:45:30;-2.50;1.00
38938;DHT22;24727;51.974;20.868;2023-12-04T03:47:56;-2.60;1.00
38938;DHT22;24727;51.974;20.868;2023-12-04T03:50:22;-2.60;1.00
38938;DHT22;24727;51.974;20.868;2023-12-04T03:52:48;-2.60;1.00
38938;DHT22;24727;51.974;20.868;2023-12-04T03:55:14;-2.60;1.00
38938;DHT22;24727;51.974;20.868;2023-12-04T03:57:41;-2.60;1.00
38938;DHT22;24727;51.974;20.868;2023-12-04T04:00:09;-2.60;1.00
38938;DHT22;24727;51.974;20.868;2023-12-04T04:02:35;-2.60;1.00
38938;DHT22;24727;51.974;20.868;2023-12-04T04:05:01;-2.70;1.00
38938;DHT22;24727;51.974;20.868;2023-12-04T04:07:27;-2.60;1.00
38938;DHT22;24727;51.974;20.868;2023-12-04T04:09:52;-2.60;1.00
38938;DHT22;24727;51.974;20.868;2023-12-04T04:12:18;-2.60;1.00
38938;DHT22;24727;51.974;20.868;2023-12-04T04:14:44;-2.60;1.00
38938;DHT22;24727;51.974;20.868;2023-12-04T04:17:10;-2.60;1.00
38938;DHT22;24727;51.974;20.868;2023-12-04T04:19:36;-2.60;1.00
38938;DHT22;24727;51.974;20.868;2023-12-04T04:22:01;-2.60;1.00
38938;DHT22;24727;51.974;20.868;2023-12-04T04:24:28;-2.60;1.00
38938;DHT22;24727;51.974;20.868;2023-12-04T04:26:54;-2.60;1.00
38938;DHT22;24727;51.974;20.868;2023-12-04T04:29:20;-2.70;1.00
38938;DHT22;24727;51.974;20.868;2023-12-04T04:31:45;-2.60;1.00
38938;DHT22;24727;51.974;20.868;2023-12-04T04:34:11;-2.70;1.00
38938;DHT22;24727;51.974;20.868;2023-12-04T04:36:37;-2.70;1.00
38938;DHT22;24727;51.974;20.868;2023-12-04T04:39:03;-2.70;1.00
38938;DHT22;24727;51.974;20.868;2023-12-04T04:41:29;-2.70;1.00
38938;DHT22;24727;51.974;20.868;2023-12-04T04:43:54;-2.70;1.00
38938;DHT22;24727;51.974;20.868;2023-12-04T04:46:20;-2.70;1.00
38938;DHT22;24727;51.974;20.868;2023-12-04T04:48:46;-2.70;1.00
38938;DHT22;24727;51.974;20.868;2023-12-04T04:51:12;-2.70;1.00
38938;DHT22;24727;51.974;20.868;2023-12-04T04:53:38;-2.70;1.00
38938;DHT22;24727;51.974;20.868;2023-12-04T04:56:04;-2.70;1.00
38938;DHT22;24727;51.974;20.868;2023-12-04T04:58:30;-2.80;1.00
38938;DHT22;24727;51.974;20.868;2023-12-04T05:00:56;-2.80;1.00
38938;DHT22;24727;51.974;20.868;2023-12-04T05:03:22;-2.80;1.00
38938;DHT22;24727;51.974;20.868;2023-12-04T05:05:48;-2.80;1.00
38938;DHT22;24727;51.974;20.868;2023-12-04T05:08:13;-2.80;1.00
38938;DHT22;24727;51.974;20.868;2023-12-04T05:10:39;-2.80;1.00
38938;DHT22;24727;51.974;20.868;2023-12-04T05:13:05;-2.80;1.00
38938;DHT22;24727;51.974;20.868;2023-12-04T05:15:31;-2.80;1.00
38938;DHT22;24727;51.974;20.868;2023-12-04T05:17:56;-2.80;1.00
38938;DHT22;24727;51.974;20.868;2023-12-04T05:20:22;-2.80;1.00
38938;DHT22;24727;51.974;20.868;2023-12-04T05:22:49;-2.80;1.00
38938;DHT22;24727;51.974;20.868;2023-12-04T05:25:15;-2.80;1.00
38938;DHT22;24727;51.974;20.868;2023-12-04T05:27:40;-2.80;1.00
38938;DHT22;24727;51.974;20.868;2023-12-04T05:30:07;-2.80;1.00
38938;DHT22;24727;51.974;20.868;2023-12-04T05:32:33;-2.80;1.00
38938;DHT22;24727;51.974;20.868;2023-12-04T05:34:58;-2.80;1.00
38938;DHT22;24727;51.974;20.868;2023-12-04T05:37:24;-2.80;1.00
38938;DHT22;24727;51.974;20.868;2023-12-04T05:39:50;-2.80;1.00
38938;DHT22;24727;51.974;20.868;2023-12-04T05:42:16;-2.80;1.00
38938;DHT22;24727;51.974;20.868;2023-12-04T05:44:42;-2.80;1.00
38938;DHT22;24727;51.974;20.868;2023-12-04T05:47:07;-2.80;1.00
38938;DHT22;24727;51.974;20.868;2023-12-04T05:49:34;-2.80;1.00
38938;DHT22;24727;51.974;20.868;2023-12-04T05:51:59;-2.80;1.00
38938;DHT22;24727;51.974;20.868;2023-12-04T05:54:25;-2.80;1.00
38938;DHT22;24727;51.974;20.868;2023-12-04T05:56:51;-2.90;1.00
38938;DHT22;24727;51.974;20.868;2023-12-04T05:59:17;-2.90;1.00
38938;DHT22;24727;51.974;20.868;2023-12-04T06:01:43;-2.90;1.00
38938;DHT22;24727;51.974;20.868;2023-12-04T06:04:08;-2.90;1.00
38938;DHT22;24727;51.974;20.868;2023-12-04T06:06:34;-2.90;1.00
38938;DHT22;24727;51.974;20.868;2023-12-04T06:09:00;-2.80;1.00
38938;DHT22;24727;51.974;20.868;2023-12-04T06:11:26;-2.90;1.00
38938;DHT22;24727;51.974;20.868;2023-12-04T06:13:52;-2.90;1.00
38938;DHT22;24727;51.974;20.868;2023-12-04T06:16:17;-2.90;1.00
38938;DHT22;24727;51.974;20.868;2023-12-04T06:18:43;-2.80;1.00
38938;DHT22;24727;51.974;20.868;2023-12-04T06:21:09;-2.80;1.00
38938;DHT22;24727;51.974;20.868;2023-12-04T06:23:35;-2.80;1.00
38938;DHT22;24727;51.974;20.868;2023-12-04T06:26:01;-2.80;1.00
38938;DHT22;24727;51.974;20.868;2023-12-04T06:28:27;-2.80;1.00
38938;DHT22;24727;51.974;20.868;2023-12-04T06:30:53;-2.80;1.00
38938;DHT22;24727;51.974;20.868;2023-12-04T06:33:19;-2.80;1.00
38938;DHT22;24727;51.974;20.868;2023-12-04T06:35:46;-2.80;1.00
38938;DHT22;24727;51.974;20.868;2023-12-04T06:38:15;-2.80;1.00
38938;DHT22;24727;51.974;20.868;2023-12-04T06:40:44;-2.80;1.00
38938;DHT22;24727;51.974;20.868;2023-12-04T06:43:10;-2.80;1.00
38938;DHT22;24727;51.974;20.868;2023-12-04T06:45:37;-2.70;1.00
38938;DHT22;24727;51.974;20.868;2023-12-04T06:48:03;-2.80;1.00
38938;DHT22;24727;51.974;20.868;2023-12-04T06:50:29;-2.70;1.00
38938;DHT22;24727;51.974;20.868;2023-12-04T06:52:54;-2.70;1.00
38938;DHT22;24727;51.974;20.868;2023-12-04T06:55:20;-2.70;1.00
38938;DHT22;24727;51.974;20.868;2023-12-04T06:57:46;-2.70;1.00
38938;DHT22;24727;51.974;20.868;2023-12-04T07:00:12;-2.70;1.00
38938;DHT22;24727;51.974;20.868;2023-12-04T07:02:39;-2.70;1.00
38938;DHT22;24727;51.974;20.868;2023-12-04T07:05:06;-2.60;1.00
38938;DHT22;24727;51.974;20.868;2023-12-04T07:07:32;-2.60;1.00
38938;DHT22;24727;51.974;20.868;2023-12-04T07:09:58;-2.70;1.00
38938;DHT22;24727;51.974;20.868;2023-12-04T07:12:23;-2.60;1.00
38938;DHT22;24727;51.974;20.868;2023-12-04T07:14:50;-2.60;1.00
38938;DHT22;24727;51.974;20.868;2023-12-04T07:17:16;-2.50;1.00
38938;DHT22;24727;51.974;20.868;2023-12-04T07:19:42;-2.50;1.00
38938;DHT22;24727;51.974;20.868;2023-12-04T07:22:08;-2.50;1.00
38938;DHT22;24727;51.974;20.868;2023-12-04T07:24:34;-2.60;1.00
38938;DHT22;24727;51.974;20.868;2023-12-04T07:27:00;-2.60;1.00
38938;DHT22;24727;51.974;20.868;2023-12-04T07:29:25;-2.60;1.00
38938;DHT22;24727;51.974;20.868;2023-12-04T07:31:51;-2.50;1.00
38938;DHT22;24727;51.974;20.868;2023-12-04T07:34:17;-2.50;1.00
38938;DHT22;24727;51.974;20.868;2023-12-04T07:36:43;-2.50;1.00
38938;DHT22;24727;51.974;20.868;2023-12-04T07:39:10;-2.50;1.00
38938;DHT22;24727;51.974;20.868;2023-12-04T07:41:36;-2.50;1.00
38938;DHT22;24727;51.974;20.868;2023-12-04T07:44:03;-2.50;1.00
38938;DHT22;24727;51.974;20.868;2023-12-04T07:46:29;-2.50;1.00
38938;DHT22;24727;51.974;20.868;2023-12-04T07:48:55;-2.50;1.00
38938;DHT22;24727;51.974;20.868;2023-12-04T07:51:21;-2.50;1.00
38938;DHT22;24727;51.974;20.868;2023-12-04T07:53:47;-2.50;1.00
38938;DHT22;24727;51.974;20.868;2023-12-04T07:56:13;-2.50;1.00
38938;DHT22;24727;51.974;20.868;2023-12-04T07:58:39;-2.40;1.00
38938;DHT22;24727;51.974;20.868;2023-12-04T08:01:05;-2.40;1.00
38938;DHT22;24727;51.974;20.868;2023-12-04T08:03:31;-2.50;1.00
38938;DHT22;24727;51.974;20.868;2023-12-04T08:05:57;-2.40;1.00
38938;DHT22;24727;51.974;20.868;2023-12-04T08:08:24;-2.40;1.00
38938;DHT22;24727;51.974;20.868;2023-12-04T08:10:50;-2.30;1.00
38938;DHT22;24727;51.974;20.868;2023-12-04T08:13:16;-2.20;1.00
38938;DHT22;24727;51.974;20.868;2023-12-04T08:15:43;-2.20;1.00
38938;DHT22;24727;51.974;20.868;2023-12-04T08:18:09;-2.20;1.00
38938;DHT22;24727;51.974;20.868;2023-12-04T08:20:35;-2.20;1.00
38938;DHT22;24727;51.974;20.868;2023-12-04T08:23:01;-2.30;1.00
38938;DHT22;24727;51.974;20.868;2023-12-04T08:25:28;-2.20;1.00
38938;DHT22;24727;51.974;20.868;2023-12-04T08:27:54;-2.20;1.00
38938;DHT22;24727;51.974;20.868;2023-12-04T08:30:20;-2.20;1.00
38938;DHT22;24727;51.974;20.868;2023-12-04T08:32:45;-2.20;1.00
38938;DHT22;24727;51.974;20.868;2023-12-04T08:35:12;-2.20;1.00
38938;DHT22;24727;51.974;20.868;2023-12-04T08:37:38;-2.10;1.00
38938;DHT22;24727;51.974;20.868;2023-12-04T08:40:06;-2.10;1.00
38938;DHT22;24727;51.974;20.868;2023-12-04T08:42:33;-2.00;1.00
38938;DHT22;24727;51.974;20.868;2023-12-04T08:44:59;-2.00;1.00
38938;DHT22;24727;51.974;20.868;2023-12-04T08:47:25;-1.90;1.00
38938;DHT22;24727;51.974;20.868;2023-12-04T08:49:51;-1.80;1.00
38938;DHT22;24727;51.974;20.868;2023-12-04T08:52:17;-1.70;1.00
38938;DHT22;24727;51.974;20.868;2023-12-04T08:54:43;-1.80;1.00
38938;DHT22;24727;51.974;20.868;2023-12-04T08:57:09;-1.60;1.00
38938;DHT22;24727;51.974;20.868;2023-12-04T08:59:35;-1.50;1.00
38938;DHT22;24727;51.974;20.868;2023-12-04T09:02:01;-1.60;1.00
38938;DHT22;24727;51.974;20.868;2023-12-04T09:04:31;-1.50;1.00
38938;DHT22;24727;51.974;20.868;2023-12-04T09:06:57;-1.50;1.00
38938;DHT22;24727;51.974;20.868;2023-12-04T09:09:23;-1.50;1.00
38938;DHT22;24727;51.974;20.868;2023-12-04T09:11:49;-1.40;1.00
38938;DHT22;24727;51.974;20.868;2023-12-04T09:14:15;-1.30;1.00
38938;DHT22;24727;51.974;20.868;2023-12-04T09:16:41;-1.40;1.00
38938;DHT22;24727;51.974;20.868;2023-12-04T09:19:08;-1.50;1.00
38938;DHT22;24727;51.974;20.868;2023-12-04T09:21:35;-1.60;1.00
38938;DHT22;24727;51.974;20.868;2023-12-04T09:24:01;-1.60;1.00
38938;DHT22;24727;51.974;20.868;2023-12-04T09:26:27;-1.60;1.00
38938;DHT22;24727;51.974;20.868;2023-12-04T09:28:53;-1.50;1.00
38938;DHT22;24727;51.974;20.868;2023-12-04T09:31:19;-1.30;1.00
38938;DHT22;24727;51.974;20.868;2023-12-04T09:33:45;-1.20;1.00
38938;DHT22;24727;51.974;20.868;2023-12-04T09:36:12;-1.20;99.90
38938;DHT22;24727;51.974;20.868;2023-12-04T09:38:38;-1.20;99.90
38938;DHT22;24727;51.974;20.868;2023-12-04T09:41:06;-1.10;1.40
38938;DHT22;24727;51.974;20.868;2023-12-04T09:43:35;-1.10;1.40
38938;DHT22;24727;51.974;20.868;2023-12-04T09:46:01;-1.00;99.90
38938;DHT22;24727;51.974;20.868;2023-12-04T09:48:27;-1.00;99.90
38938;DHT22;24727;51.974;20.868;2023-12-04T09:50:54;-1.10;99.90
38938;DHT22;24727;51.974;20.868;2023-12-04T09:53:21;-1.00;99.90
38938;DHT22;24727;51.974;20.868;2023-12-04T09:55:51;-1.10;99.90
38938;DHT22;24727;51.974;20.868;2023-12-04T09:58:23;-1.10;99.90
38938;DHT22;24727;51.974;20.868;2023-12-04T10:00:50;-1.00;99.90
38938;DHT22;24727;51.974;20.868;2023-12-04T10:03:20;-1.10;99.90
38938;DHT22;24727;51.974;20.868;2023-12-04T10:05:46;-1.10;99.90
38938;DHT22;24727;51.974;20.868;2023-12-04T10:08:12;-1.30;99.90
38938;DHT22;24727;51.974;20.868;2023-12-04T10:10:38;-1.30;99.90
38938;DHT22;24727;51.974;20.868;2023-12-04T10:13:05;-1.30;99.90
38938;DHT22;24727;51.974;20.868;2023-12-04T10:15:32;-1.30;99.90
38938;DHT22;24727;51.974;20.868;2023-12-04T10:17:58;-1.30;1.00
38938;DHT22;24727;51.974;20.868;2023-12-04T10:20:24;-1.20;1.00
38938;DHT22;24727;51.974;20.868;2023-12-04T10:23:00;-1.30;99.90
38938;DHT22;24727;51.974;20.868;2023-12-04T10:25:28;-1.30;99.90
38938;DHT22;24727;51.974;20.868;2023-12-04T10:28:10;-1.20;99.90
38938;DHT22;24727;51.974;20.868;2023-12-04T10:30:36;-1.10;1.40
38938;DHT22;24727;51.974;20.868;2023-12-04T10:33:03;-1.20;99.90
38938;DHT22;24727;51.974;20.868;2023-12-04T10:35:31;-1.10;99.90
38938;DHT22;24727;51.974;20.868;2023-12-04T10:37:57;-1.10;1.00
38938;DHT22;24727;51.974;20.868;2023-12-04T10:40:26;-1.10;99.90
38938;DHT22;24727;51.974;20.868;2023-12-04T10:43:16;-1.20;99.90
38938;DHT22;24727;51.974;20.868;2023-12-04T10:45:44;-1.20;99.90
38938;DHT22;24727;51.974;20.868;2023-12-04T10:48:15;-1.20;99.90
38938;DHT22;24727;51.974;20.868;2023-12-04T10:50:43;-1.20;99.90
38938;DHT22;24727;51.974;20.868;2023-12-04T10:53:11;-1.20;99.90
38938;DHT22;24727;51.974;20.868;2023-12-04T10:55:38;-1.10;99.90
38938;DHT22;24727;51.974;20.868;2023-12-04T10:58:09;-1.10;99.90
38938;DHT22;24727;51.974;20.868;2023-12-04T11:00:39;-1.10;99.90
38938;DHT22;24727;51.974;20.868;2023-12-04T11:03:10;-0.90;99.90
38938;DHT22;24727;51.974;20.868;2023-12-04T11:05:39;-1.00;1.00
38938;DHT22;24727;51.974;20.868;2023-12-04T11:08:07;-1.10;99.90
38938;DHT22;24727;51.974;20.868;2023-12-04T11:10:39;-1.10;99.90
38938;DHT22;24727;51.974;20.868;2023-12-04T11:13:34;-1.00;99.90
38938;DHT22;24727;51.974;20.868;2023-12-04T11:16:02;-0.90;1.00
38938;DHT22;24727;51.974;20.868;2023-12-04T11:18:35;-0.80;99.90
38938;DHT22;24727;51.974;20.868;2023-12-04T11:21:08;-0.90;99.90
38938;DHT22;24727;51.974;20.868;2023-12-04T11:23:35;-1.00;99.90
38938;DHT22;24727;51.974;20.868;2023-12-04T11:26:03;-1.00;99.90
38938;DHT22;24727;51.974;20.868;2023-12-04T11:28:30;-0.90;99.90
38938;DHT22;24727;51.974;20.868;2023-12-04T11:30:58;-1.00;99.90
38938;DHT22;24727;51.974;20.868;2023-12-04T11:33:24;-1.10;99.90
38938;DHT22;24727;51.974;20.868;2023-12-04T11:35:50;-1.20;99.90
38938;DHT22;24727;51.974;20.868;2023-12-04T11:38:17;-1.40;99.90
38938;DHT22;24727;51.974;20.868;2023-12-04T11:40:43;-1.40;99.90
38938;DHT22;24727;51.974;20.868;2023-12-04T11:43:25;-1.40;99.90
38938;DHT22;24727;51.974;20.868;2023-12-04T11:45:52;-1.30;99.90
38938;DHT22;24727;51.974;20.868;2023-12-04T11:48:23;-1.30;99.90
38938;DHT22;24727;51.974;20.868;2023-12-04T11:50:49;-1.30;99.90
38938;DHT22;24727;51.974;20.868;2023-12-04T11:53:16;-1.20;99.90
38938;DHT22;24727;51.974;20.868;2023-12-04T11:55:42;-1.30;99.90
38938;DHT22;24727;51.974;20.868;2023-12-04T11:58:12;-1.30;99.90
38938;DHT22;24727;51.974;20.868;2023-12-04T12:00:38;-1.30;99.90
38938;DHT22;24727;51.974;20.868;2023-12-04T12:03:06;-1.30;99.90
38938;DHT22;24727;51.974;20.868;2023-12-04T12:05:34;-1.20;99.90
38938;DHT22;24727;51.974;20.868;2023-12-04T12:08:04;-1.20;99.90
38938;DHT22;24727;51.974;20.868;2023-12-04T12:10:31;-1.20;99.90
38938;DHT22;24727;51.974;20.868;2023-12-04T12:12:57;-1.20;99.90
38938;DHT22;24727;51.974;20.868;2023-12-04T12:15:23;-1.10;99.90
38938;DHT22;24727;51.974;20.868;2023-12-04T12:17:49;-1.00;99.90
38938;DHT22;24727;51.974;20.868;2023-12-04T12:20:16;-1.10;99.90
38938;DHT22;24727;51.974;20.868;2023-12-04T12:22:42;-1.10;99.90
38938;DHT22;24727;51.974;20.868;2023-12-04T12:25:11;-1.00;99.90
38938;DHT22;24727;51.974;20.868;2023-12-04T12:27:38;-1.00;99.90
38938;DHT22;24727;51.974;20.868;2023-12-04T12:30:05;-1.00;99.90
38938;DHT22;24727;51.974;20.868;2023-12-04T12:32:34;-1.10;99.90
38938;DHT22;24727;51.974;20.868;2023-12-04T12:35:01;-1.20;99.90
38938;DHT22;24727;51.974;20.868;2023-12-04T12:37:28;-1.20;99.90
38938;DHT22;24727;51.974;20.868;2023-12-04T12:39:54;-1.20;99.90
38938;DHT22;24727;51.974;20.868;2023-12-04T12:42:29;-1.30;99.90
38938;DHT22;24727;51.974;20.868;2023-12-04T12:45:00;-1.30;99.90
38938;DHT22;24727;51.974;20.868;2023-12-04T12:47:26;-1.30;99.90
38938;DHT22;24727;51.974;20.868;2023-12-04T12:49:52;-1.30;99.90
38938;DHT22;24727;51.974;20.868;2023-12-04T12:52:19;-1.20;99.90
38938;DHT22;24727;51.974;20.868;2023-12-04T12:54:45;-1.20;99.90
38938;DHT22;24727;51.974;20.868;2023-12-04T12:57:12;-1.20;99.90
38938;DHT22;24727;51.974;20.868;2023-12-04T12:59:38;-1.30;99.90
38938;DHT22;24727;51.974;20.868;2023-12-04T13:02:05;-1.30;99.90
38938;DHT22;24727;51.974;20.868;2023-12-04T13:04:40;-1.40;99.90
38938;DHT22;24727;51.974;20.868;2023-12-04T13:07:06;-1.40;99.90
38938;DHT22;24727;51.974;20.868;2023-12-04T13:09:36;-1.40;99.90
38938;DHT22;24727;51.974;20.868;2023-12-04T13:12:03;-1.40;99.90
38938;DHT22;24727;51.974;20.868;2023-12-04T13:14:30;-1.40;99.90
38938;DHT22;24727;51.974;20.868;2023-12-04T13:16:56;-1.30;99.90
38938;DHT22;24727;51.974;20.868;2023-12-04T13:19:25;-1.30;99.90
38938;DHT22;24727;51.974;20.868;2023-12-04T13:21:50;-1.00;99.90
38938;DHT22;24727;51.974;20.868;2023-12-04T13:24:16;-0.80;99.90
38938;DHT22;24727;51.974;20.868;2023-12-04T13:26:43;-0.70;1.00
38938;DHT22;24727;51.974;20.868;2023-12-04T13:29:10;-0.90;99.90
38938;DHT22;24727;51.974;20.868;2023-12-04T13:31:36;-1.30;99.90
38938;DHT22;24727;51.974;20.868;2023-12-04T13:34:02;-1.20;99.90
38938;DHT22;24727;51.974;20.868;2023-12-04T13:36:29;-0.80;1.00
38938;DHT22;24727;51.974;20.868;2023-12-04T13:38:54;-0.30;1.00
38938;DHT22;24727;51.974;20.868;2023-12-04T13:41:20;0.00;1.00
38938;DHT22;24727;51.974;20.868;2023-12-04T13:44:05;0.10;1.00
38938;DHT22;24727;51.974;20.868;2023-12-04T13:46:31;0.20;1.00
38938;DHT22;24727;51.974;20.868;2023-12-04T13:48:57;0.00;1.00
38938;DHT22;24727;51.974;20.868;2023-12-04T13:51:23;0.10;1.00
38938;DHT22;24727;51.974;20.868;2023-12-04T13:53:51;-0.20;1.00
38938;DHT22;24727;51.974;20.868;2023-12-04T13:56:22;0.10;1.00
38938;DHT22;24727;51.974;20.868;2023-12-04T13:58:52;0.10;1.00
38938;DHT22;24727;51.974;20.868;2023-12-04T14:01:26;0.20;1.00
38938;DHT22;24727;51.974;20.868;2023-12-04T14:03:56;0.60;1.00
38938;DHT22;24727;51.974;20.868;2023-12-04T14:06:30;0.70;1.00
38938;DHT22;24727;51.974;20.868;2023-12-04T14:08:57;0.90;1.00
38938;DHT22;24727;51.974;20.868;2023-12-04T14:11:23;1.00;1.00
38938;DHT22;24727;51.974;20.868;2023-12-04T14:13:49;1.10;1.00
38938;DHT22;24727;51.974;20.868;2023-12-04T14:16:15;1.20;1.00
38938;DHT22;24727;51.974;20.868;2023-12-04T14:18:41;1.40;1.00
38938;DHT22;24727;51.974;20.868;2023-12-04T14:21:08;1.40;1.00
38938;DHT22;24727;51.974;20.868;2023-12-04T14:23:34;1.40;1.00
38938;DHT22;24727;51.974;20.868;2023-12-04T14:26:00;1.50;1.00
38938;DHT22;24727;51.974;20.868;2023-12-04T14:28:30;1.50;1.00
38938;DHT22;24727;51.974;20.868;2023-12-04T14:30:56;1.60;1.00
38938;DHT22;24727;51.974;20.868;2023-12-04T14:33:22;1.60;1.00
38938;DHT22;24727;51.974;20.868;2023-12-04T14:35:48;1.60;1.00
38938;DHT22;24727;51.974;20.868;2023-12-04T14:38:14;1.70;1.00
38938;DHT22;24727;51.974;20.868;2023-12-04T14:40:40;1.60;1.00
38938;DHT22;24727;51.974;20.868;2023-12-04T14:43:06;1.60;1.00
38938;DHT22;24727;51.974;20.868;2023-12-04T14:45:35;1.60;1.00
38938;DHT22;24727;51.974;20.868;2023-12-04T14:48:05;1.60;1.00
38938;DHT22;24727;51.974;20.868;2023-12-04T14:50:33;1.60;1.00
38938;DHT22;24727;51.974;20.868;2023-12-04T14:53:01;1.60;1.00
38938;DHT22;24727;51.974;20.868;2023-12-04T14:55:42;1.60;1.00
38938;DHT22;24727;51.974;20.868;2023-12-04T14:58:34;1.60;1.00
38938;DHT22;24727;51.974;20.868;2023-12-04T15:01:18;1.60;1.00
38938;DHT22;24727;51.974;20.868;2023-12-04T15:03:50;1.60;1.00
38938;DHT22;24727;51.974;20.868;2023-12-04T15:06:34;1.60;1.00
38938;DHT22;24727;51.974;20.868;2023-12-04T15:09:19;1.70;1.00
38938;DHT22;24727;51.974;20.868;2023-12-04T15:12:20;1.60;1.00
38938;DHT22;24727;51.974;20.868;2023-12-04T15:14:48;1.60;1.00
38938;DHT22;24727;51.974;20.868;2023-12-04T15:17:21;1.70;99.90
38938;DHT22;24727;51.974;20.868;2023-12-04T15:20:10;1.70;1.00
38938;DHT22;24727;51.974;20.868;2023-12-04T15:22:36;1.60;1.00
38938;DHT22;24727;51.974;20.868;2023-12-04T15:25:05;1.50;1.00
38938;DHT22;24727;51.974;20.868;2023-12-04T15:27:37;1.50;1.00
38938;DHT22;24727;51.974;20.868;2023-12-04T15:30:04;1.30;1.00